createdAt,value
2018-11-12T00:05:06.973Z,100852.84
2018-11-12T00:07:36.006Z,100840.63
2018-11-12T00:10:05.385Z,100847.14
2018-11-12T00:12:34.796Z,100852.36
2018-11-12T00:15:15.347Z,100860.80
2018-11-12T00:17:50.501Z,100866.94
2018-11-12T00:20:24.781Z,100883.63
2018-11-12T00:23:10.311Z,100876.42
2018-11-12T00:25:39.226Z,100890.22
2018-11-12T00:28:08.286Z,100885.28
2018-11-12T00:31:01.412Z,100885.80
2018-11-12T00:33:30.392Z,100880.03
2018-11-12T00:39:05.221Z,100866.78
2018-11-12T00:41:38.385Z,100859.47
2018-11-12T00:44:13.909Z,100863.61
2018-11-12T00:46:42.888Z,100869.72
2018-11-12T00:49:11.800Z,100866.72
2018-11-12T00:54:50.476Z,100875.08
2018-11-12T00:57:38.620Z,100873.58
2018-11-12T01:00:14.874Z,100884.31
2018-11-12T01:05:42.424Z,100890.03
2018-11-12T01:08:11.999Z,100889.67
2018-11-12T01:10:46.957Z,100881.31
2018-11-12T01:13:22.596Z,100856.63
2018-11-12T01:15:57.329Z,100856.15
2018-11-12T01:18:26.171Z,100880.30
2018-11-12T01:20:55.040Z,100890.95
2018-11-12T01:23:23.972Z,100888.16
2018-11-12T01:25:52.884Z,100883.41
2018-11-12T01:28:21.767Z,100885.59
2018-11-12T01:31:03.752Z,100895.94
2018-11-12T01:33:51.070Z,100901.98
2018-11-12T01:36:21.988Z,100900.40
2018-11-12T01:39:04.624Z,100899.19
2018-11-12T01:41:40.628Z,100902.55
2018-11-12T01:44:09.682Z,100898.95
2018-11-12T01:46:57.281Z,100896.65
2018-11-12T01:52:22.823Z,100885.79
2018-11-12T01:57:49.675Z,100870.45
2018-11-12T02:00:19.817Z,100861.48
2018-11-12T02:02:57.014Z,100859.42
2018-11-12T02:05:27.036Z,100855.17
2018-11-12T02:07:57.029Z,100851.50
2018-11-12T02:10:25.882Z,100863.88
2018-11-12T02:12:58.132Z,100854.13
2018-11-12T02:15:27.025Z,100853.11
2018-11-12T02:17:55.906Z,100858.42
2018-11-12T02:20:24.803Z,100852.66
2018-11-12T02:22:53.779Z,100842.56
2018-11-12T02:25:22.575Z,100840.72
2018-11-12T02:27:55.707Z,100835.80
2018-11-12T02:30:29.844Z,100825.33
2018-11-12T02:33:05.782Z,100827.77
2018-11-12T02:35:34.625Z,100824.39
2018-11-12T02:38:03.602Z,100820.86
2018-11-12T02:40:32.472Z,100825.08
2018-11-12T02:43:01.474Z,100830.04
2018-11-12T02:45:30.398Z,100825.86
2018-11-12T02:47:59.260Z,100812.98
2018-11-12T02:53:37.342Z,100802.80
2018-11-12T02:56:12.629Z,100804.16
2018-11-12T02:58:41.648Z,100820.94
2018-11-12T03:01:10.666Z,100822.95
2018-11-12T03:03:39.541Z,100832.77
2018-11-12T03:06:08.456Z,100823.40
2018-11-12T03:08:37.402Z,100822.42
2018-11-12T03:11:06.316Z,100817.00
2018-11-12T03:13:35.229Z,100827.34
2018-11-12T03:16:04.268Z,100828.69
2018-11-12T03:18:33.148Z,100827.08
2018-11-12T03:24:14.746Z,100833.75
2018-11-12T03:26:43.632Z,100838.67
2018-11-12T03:29:12.720Z,100843.08
2018-11-12T03:31:59.032Z,100847.97
2018-11-12T03:34:27.926Z,100873.82
2018-11-12T03:36:56.849Z,100884.00
2018-11-12T03:39:25.727Z,100883.28
2018-11-12T03:42:00.362Z,100875.27
2018-11-12T03:44:29.371Z,100871.34
2018-11-12T03:49:58.463Z,100875.04
2018-11-12T03:52:27.392Z,100871.63
2018-11-12T03:55:18.534Z,100869.77
2018-11-12T03:57:48.436Z,100877.34
2018-11-12T04:00:19.828Z,100867.58
2018-11-12T04:02:48.633Z,100857.41
2018-11-12T04:05:17.786Z,100859.96
2018-11-12T04:07:46.679Z,100865.19
2018-11-12T04:10:16.996Z,100873.59
2018-11-12T04:12:57.991Z,100874.63
2018-11-12T04:15:27.188Z,100874.88
2018-11-12T04:17:59.326Z,100864.02
2018-11-12T04:20:28.220Z,100852.27
2018-11-12T04:23:03.768Z,100845.30
2018-11-12T04:25:38.191Z,100836.25
2018-11-12T04:28:07.116Z,100834.72
2018-11-12T04:30:36.274Z,100843.53
2018-11-12T04:33:05.457Z,100846.73
2018-11-12T04:35:35.268Z,100846.22
2018-11-12T04:38:11.741Z,100849.53
2018-11-12T04:40:43.926Z,100844.09
2018-11-12T04:43:12.972Z,100843.30
2018-11-12T04:45:45.736Z,100854.08
2018-11-12T04:48:14.654Z,100855.00
2018-11-12T04:50:43.863Z,100858.23
2018-11-12T04:53:24.989Z,100847.09
2018-11-12T04:56:18.867Z,100833.48
2018-11-12T04:59:02.300Z,100825.69
2018-11-12T05:01:35.280Z,100840.35
2018-11-12T05:04:05.500Z,100847.89
2018-11-12T05:06:53.317Z,100842.19
2018-11-12T05:09:23.394Z,100844.88
2018-11-12T05:12:06.365Z,100853.16
2018-11-12T05:14:58.307Z,100833.24
2018-11-12T05:17:41.127Z,100823.47
2018-11-12T05:20:13.453Z,100818.02
2018-11-12T05:22:42.523Z,100809.55
2018-11-12T05:25:13.476Z,100818.58
2018-11-12T05:27:44.494Z,100819.92
2018-11-12T05:33:18.107Z,100820.83
2018-11-12T05:35:48.238Z,100816.92
2018-11-12T05:38:17.203Z,100810.59
2018-11-12T05:40:46.091Z,100813.48
2018-11-12T05:43:33.920Z,100810.90
2018-11-12T05:46:15.311Z,100811.34
2018-11-12T05:48:58.740Z,100806.78
2018-11-12T05:51:28.727Z,100817.47
2018-11-12T05:53:58.710Z,100825.02
2018-11-12T05:56:27.757Z,100820.47
2018-11-12T05:58:58.762Z,100825.50
2018-11-12T06:01:27.640Z,100824.75
2018-11-12T06:03:56.570Z,100837.28
2018-11-12T06:06:26.560Z,100841.14
2018-11-12T06:08:57.503Z,100836.38
2018-11-12T06:11:26.474Z,100840.75
2018-11-12T06:16:55.446Z,100829.62
2018-11-12T06:19:24.340Z,100835.69
2018-11-12T06:21:53.232Z,100856.48
2018-11-12T06:24:26.153Z,100869.68
2018-11-12T06:26:55.540Z,100869.72
2018-11-12T06:29:24.573Z,100889.17
2018-11-12T06:31:53.668Z,100865.41
2018-11-12T06:34:32.382Z,100864.94
2018-11-12T06:37:05.471Z,100861.19
2018-11-12T06:39:40.895Z,100857.67
2018-11-12T06:42:32.522Z,100882.08
2018-11-12T06:45:13.479Z,100891.00
2018-11-12T06:47:43.166Z,100856.27
2018-11-12T06:50:13.622Z,100872.11
2018-11-12T06:52:48.575Z,100868.44
2018-11-12T06:55:24.496Z,100847.63
2018-11-12T06:57:53.848Z,100845.56
2018-11-12T07:00:39.037Z,100857.47
2018-11-12T07:03:07.937Z,100839.30
2018-11-12T07:05:42.386Z,100830.66
2018-11-12T07:08:11.332Z,100838.01
2018-11-12T07:10:40.265Z,100851.75
2018-11-12T07:13:09.251Z,100839.52
2018-11-12T07:15:38.543Z,100850.38
2018-11-12T07:18:07.791Z,100840.36
2018-11-12T07:20:36.771Z,100834.60
2018-11-12T07:29:01.010Z,100838.47
2018-11-12T07:31:30.380Z,100831.30
2018-11-12T07:33:59.291Z,100812.95
2018-11-12T07:36:28.266Z,100814.92
2018-11-12T07:39:02.247Z,100820.50
2018-11-12T07:41:35.168Z,100816.11
2018-11-12T07:46:58.941Z,100816.52
2018-11-12T07:49:27.920Z,100819.80
2018-11-12T07:52:17.764Z,100818.06
2018-11-12T07:54:46.654Z,100827.57
2018-11-12T07:57:15.592Z,100830.89
2018-11-12T07:59:54.565Z,100821.26
2018-11-12T08:02:23.430Z,100817.98
2018-11-12T08:04:52.460Z,100817.80
2018-11-12T08:07:24.614Z,100808.75
2018-11-12T08:09:55.612Z,100817.50
2018-11-12T08:12:30.900Z,100806.64
2018-11-12T08:15:06.776Z,100804.23
2018-11-12T08:17:54.441Z,100810.94
2018-11-12T08:20:24.368Z,100799.48
2018-11-12T08:22:55.349Z,100792.25
2018-11-12T08:25:37.808Z,100798.89
2018-11-12T08:28:19.603Z,100792.33
2018-11-12T08:31:04.491Z,100779.80
2018-11-12T08:33:33.398Z,100785.30
2018-11-12T08:36:03.384Z,100782.14
2018-11-12T08:38:32.305Z,100783.69
2018-11-12T08:41:01.328Z,100782.80
2018-11-12T08:43:30.463Z,100771.70
2018-11-12T08:45:59.419Z,100763.25
2018-11-12T08:48:28.391Z,100767.86
2018-11-12T08:50:58.320Z,100768.14
2018-11-12T08:53:27.256Z,100769.69
2018-11-12T08:56:03.179Z,100774.15
2018-11-12T08:58:32.170Z,100765.34
2018-11-12T09:01:05.284Z,100755.50
2018-11-12T09:03:34.206Z,100762.20
2018-11-12T09:06:03.172Z,100769.30
2018-11-12T09:08:31.959Z,100771.02
2018-11-12T09:11:13.166Z,100765.39
2018-11-12T09:13:47.262Z,100771.86
2018-11-12T09:16:16.209Z,100766.00
2018-11-12T09:18:45.132Z,100768.45
2018-11-12T09:21:21.249Z,100774.41
2018-11-12T09:23:53.880Z,100780.67
2018-11-12T09:35:17.090Z,100768.43
2018-11-12T09:37:47.106Z,100769.33
2018-11-12T09:40:18.642Z,100767.87
2018-11-12T09:42:47.551Z,100758.09
2018-11-12T09:45:16.460Z,100767.02
2018-11-12T09:50:44.727Z,100778.36
2018-11-12T09:53:32.381Z,100768.87
2018-11-12T09:56:15.111Z,100780.89
2018-11-12T09:59:04.056Z,100789.61
2018-11-12T10:01:33.397Z,100791.41
2018-11-12T10:04:06.770Z,100801.41
2018-11-12T10:06:35.893Z,100803.53
2018-11-12T10:09:12.033Z,100796.97
2018-11-12T10:11:51.950Z,100796.13
2018-11-12T10:14:20.976Z,100801.78
2018-11-12T10:16:56.827Z,100792.07
2018-11-12T10:19:35.102Z,100794.27
2018-11-12T10:22:26.976Z,100806.03
2018-11-12T10:24:56.187Z,100801.88
2018-11-12T10:27:26.419Z,100796.44
2018-11-12T10:30:02.837Z,100802.27
2018-11-12T10:32:35.100Z,100790.69
2018-11-12T10:35:11.698Z,100782.53
2018-11-12T10:37:41.636Z,100786.77
2018-11-12T10:40:13.185Z,100791.41
2018-11-12T10:42:42.309Z,100789.21
2018-11-12T10:45:15.459Z,100789.84
2018-11-12T10:47:51.432Z,100787.27
2018-11-12T10:50:20.583Z,100790.69
2018-11-12T10:52:49.509Z,100781.90
2018-11-12T10:55:21.267Z,100788.84
2018-11-12T10:57:50.340Z,100796.06
2018-11-12T11:00:27.112Z,100795.81
2018-11-12T11:03:13.092Z,100796.09
2018-11-12T11:05:43.247Z,100803.30
2018-11-12T11:08:12.284Z,100799.06
2018-11-12T11:10:41.537Z,100795.09
2018-11-12T11:13:10.191Z,100798.36
2018-11-12T11:15:39.521Z,100788.55
2018-11-12T11:18:08.326Z,100798.02
2018-11-12T11:20:53.361Z,100790.33
2018-11-12T11:23:30.656Z,100787.33
2018-11-12T11:25:59.752Z,100788.05
2018-11-12T11:28:34.487Z,100796.93
2018-11-12T11:31:15.953Z,100797.30
2018-11-12T11:33:46.904Z,100797.81
2018-11-12T11:36:28.084Z,100788.84
2018-11-12T11:39:07.897Z,100793.41
2018-11-12T11:44:39.151Z,100783.63
2018-11-12T11:47:14.974Z,100803.23
2018-11-12T11:50:00.129Z,100799.30
2018-11-12T11:55:26.537Z,100800.89
2018-11-12T11:57:56.523Z,100804.29
2018-11-12T12:00:27.931Z,100806.56
2018-11-12T12:02:58.286Z,100808.13
2018-11-12T12:05:40.407Z,100818.71
2018-11-12T12:08:10.469Z,100815.70
2018-11-12T12:10:46.501Z,100821.67
2018-11-12T12:13:18.561Z,100834.73
2018-11-12T12:15:48.464Z,100837.95
2018-11-12T12:18:17.561Z,100822.94
2018-11-12T12:23:45.565Z,100819.52
2018-11-12T12:26:22.707Z,100820.73
2018-11-12T12:28:51.623Z,100823.34
2018-11-12T12:31:20.546Z,100842.48
2018-11-12T12:33:53.671Z,100828.86
2018-11-12T12:36:42.695Z,100843.58
2018-11-12T12:39:12.047Z,100855.63
2018-11-12T12:41:41.047Z,100846.34
2018-11-12T12:44:09.950Z,100842.78
2018-11-12T12:46:48.996Z,100848.19
2018-11-12T12:49:24.683Z,100863.63
2018-11-12T12:52:11.091Z,100851.28
2018-11-12T12:55:03.163Z,100849.38
2018-11-12T12:57:32.156Z,100861.80
2018-11-12T13:00:06.050Z,100858.84
2018-11-12T13:02:40.554Z,100869.88
2018-11-12T13:05:15.416Z,100870.77
2018-11-12T13:07:50.466Z,100886.54
2018-11-12T13:10:20.655Z,100882.77
2018-11-12T13:12:49.591Z,100895.64
2018-11-12T13:15:19.362Z,100895.45
2018-11-12T13:17:56.466Z,100909.30
2018-11-12T13:20:25.755Z,100910.70
2018-11-12T13:22:54.559Z,100920.03
2018-11-12T13:25:27.227Z,100913.83
2018-11-12T13:28:03.622Z,100915.20
2018-11-12T13:30:39.400Z,100922.64
2018-11-12T13:33:08.283Z,100922.24
2018-11-12T13:35:37.215Z,100928.04
2018-11-12T13:38:06.424Z,100921.84
2018-11-12T13:40:36.397Z,100924.95
2018-11-12T13:43:11.823Z,100929.50
2018-11-12T13:45:54.083Z,100922.30
2018-11-12T13:48:23.124Z,100927.59
2018-11-12T13:50:57.588Z,100931.04
2018-11-12T13:53:36.914Z,100924.33
2018-11-12T13:56:06.367Z,100927.60
2018-11-12T13:58:37.385Z,100934.88
2018-11-12T14:01:06.422Z,100932.45
2018-11-12T14:03:36.368Z,100935.31
2018-11-12T14:06:06.351Z,100933.25
2018-11-12T14:08:41.049Z,100935.85
2018-11-12T14:14:03.907Z,100935.58
2018-11-12T14:16:57.452Z,100941.83
2018-11-12T14:19:50.179Z,100945.59
2018-11-12T14:22:19.072Z,100951.75
2018-11-12T14:24:48.059Z,100958.50
2018-11-12T14:27:17.023Z,100954.91
2018-11-12T14:29:45.972Z,100958.73
2018-11-12T14:32:14.919Z,100955.75
2018-11-12T14:35:06.299Z,100959.70
2018-11-12T14:37:36.543Z,100957.05
2018-11-12T14:40:07.806Z,100968.54
2018-11-12T14:42:36.883Z,100970.32
2018-11-12T14:45:30.396Z,100983.37
2018-11-12T14:48:03.216Z,100995.48
2018-11-12T14:50:54.403Z,101007.25
2018-11-12T14:53:30.415Z,101007.58
2018-11-12T14:58:53.624Z,101015.80
2018-11-12T15:01:22.716Z,101020.46
2018-11-12T15:03:52.858Z,101022.05
2018-11-12T15:06:39.556Z,101043.20
2018-11-12T15:09:18.172Z,101037.40
2018-11-12T15:11:50.485Z,101039.11
2018-11-12T15:17:26.806Z,101031.45
2018-11-12T15:25:42.981Z,101044.04
2018-11-12T15:31:12.336Z,101055.48
2018-11-12T15:33:41.215Z,101051.43
2018-11-12T15:36:10.077Z,101046.27
2018-11-12T15:38:44.057Z,101038.16
2018-11-12T15:41:13.063Z,101046.56
2018-11-12T15:43:44.187Z,101050.89
2018-11-12T15:46:30.400Z,101054.70
2018-11-12T15:49:06.685Z,101054.58
2018-11-12T15:51:42.446Z,101056.30
2018-11-12T15:54:13.564Z,101064.14
2018-11-12T15:56:53.136Z,101069.63
2018-11-12T16:02:39.957Z,101094.87
2018-11-12T16:05:13.554Z,101109.62
2018-11-12T16:07:42.657Z,101124.29
2018-11-12T16:10:21.608Z,101132.35
2018-11-12T16:13:02.372Z,101130.95
2018-11-12T16:15:36.798Z,101139.17
2018-11-12T16:18:19.565Z,101133.58
2018-11-12T16:20:48.537Z,101125.18
2018-11-12T16:23:40.500Z,101129.89
2018-11-12T16:29:07.736Z,101148.03
2018-11-12T16:31:49.563Z,101161.22
2018-11-12T16:37:19.388Z,101174.99
2018-11-12T16:39:48.755Z,101185.03
2018-11-12T16:42:18.377Z,101199.84
2018-11-12T16:45:00.722Z,101202.30
2018-11-12T16:47:46.239Z,101197.51
2018-11-12T16:50:16.257Z,101200.34
2018-11-12T16:52:45.655Z,101198.11
2018-11-12T16:55:16.678Z,101192.38
2018-11-12T16:57:45.756Z,101182.27
2018-11-12T17:00:15.803Z,101184.09
2018-11-12T17:02:45.067Z,101200.34
2018-11-12T17:05:16.532Z,101205.21
2018-11-12T17:07:53.859Z,101223.73
2018-11-12T17:10:42.055Z,101215.08
2018-11-12T17:13:11.974Z,101240.02
2018-11-12T17:18:34.548Z,101233.90
2018-11-12T17:21:08.189Z,101243.03
2018-11-12T17:23:37.120Z,101245.32
2018-11-12T17:29:00.471Z,101236.74
2018-11-12T17:31:34.157Z,101265.08
2018-11-12T17:34:03.222Z,101270.84
2018-11-12T17:36:32.167Z,101272.48
2018-11-12T17:39:01.197Z,101284.37
2018-11-12T17:41:36.245Z,101263.59
2018-11-12T17:44:05.419Z,101264.28
2018-11-12T17:46:34.517Z,101276.09
2018-11-12T17:49:03.486Z,101279.66
2018-11-12T17:51:42.278Z,101291.03
2018-11-12T17:54:11.495Z,101303.20
2018-11-12T17:56:40.375Z,101297.52
2018-11-12T17:59:09.376Z,101311.25
2018-11-12T18:01:38.399Z,101321.92
2018-11-12T18:04:07.450Z,101308.53
2018-11-12T18:06:37.460Z,101307.11
2018-11-12T18:09:10.234Z,101310.38
2018-11-12T18:11:40.171Z,101305.87
2018-11-12T18:14:11.538Z,101320.11
2018-11-12T18:16:55.024Z,101328.16
2018-11-12T18:19:31.240Z,101322.66
2018-11-12T18:22:01.442Z,101329.88
2018-11-12T18:24:32.405Z,101327.41
2018-11-12T18:27:02.602Z,101332.73
2018-11-12T18:29:31.594Z,101334.16
2018-11-12T18:32:02.608Z,101345.05
2018-11-12T18:34:31.586Z,101346.09
2018-11-12T18:37:03.811Z,101359.44
2018-11-12T18:39:40.061Z,101364.57
2018-11-12T18:42:31.678Z,101360.36
2018-11-12T18:45:09.678Z,101361.72
2018-11-12T18:47:44.262Z,101373.26
2018-11-12T18:50:16.854Z,101363.88
2018-11-12T18:52:59.989Z,101372.30
2018-11-12T18:55:33.009Z,101403.14
2018-11-12T18:58:02.082Z,101390.83
2018-11-12T19:00:33.054Z,101379.05
2018-11-12T19:03:03.088Z,101370.28
2018-11-12T19:05:35.199Z,101372.06
2018-11-12T19:08:04.221Z,101359.09
2018-11-12T19:10:34.281Z,101340.77
2018-11-12T19:13:05.679Z,101370.86
2018-11-12T19:15:52.570Z,101386.08
2018-11-12T19:18:27.855Z,101372.06
2018-11-12T19:20:57.840Z,101367.47
2018-11-12T19:23:36.843Z,101374.61
2018-11-12T19:26:29.029Z,101370.09
2018-11-12T19:28:59.959Z,101364.54
2018-11-12T19:31:30.975Z,101359.36
2018-11-12T19:34:03.812Z,101372.34
2018-11-12T19:36:32.769Z,101382.48
2018-11-12T19:39:02.674Z,101390.90
2018-11-12T19:41:32.613Z,101404.19
2018-11-12T19:44:03.567Z,101396.38
2018-11-12T19:46:32.864Z,101410.86
2018-11-12T19:49:02.865Z,101420.70
2018-11-12T19:51:32.842Z,101421.73
2018-11-12T19:54:02.913Z,101422.85
2018-11-12T19:56:37.935Z,101416.56
2018-11-12T19:59:14.080Z,101424.13
2018-11-12T20:01:44.994Z,101425.34
2018-11-12T20:04:19.140Z,101432.78
2018-11-12T20:06:49.197Z,101431.41
2018-11-12T20:09:24.064Z,101421.44
2018-11-12T20:12:04.811Z,101418.89
2018-11-12T20:14:33.792Z,101422.05
2018-11-12T20:17:08.659Z,101416.41
2018-11-12T20:19:39.640Z,101421.58
2018-11-12T20:22:10.575Z,101421.58
2018-11-12T20:24:43.359Z,101429.81
2018-11-12T20:27:25.301Z,101430.78
2018-11-12T20:30:04.826Z,101437.47
2018-11-12T20:32:34.315Z,101437.53
2018-11-12T20:35:04.456Z,101443.78
2018-11-12T20:37:43.115Z,101436.58
2018-11-12T20:40:13.034Z,101430.41
2018-11-12T20:42:43.761Z,101419.59
2018-11-12T20:45:20.716Z,101424.67
2018-11-12T20:47:54.740Z,101426.23
2018-11-12T20:50:25.585Z,101428.74
2018-11-12T20:52:55.639Z,101435.93
2018-11-12T20:55:31.769Z,101429.29
2018-11-12T20:58:00.799Z,101428.48
2018-11-12T21:00:35.512Z,101430.16
2018-11-12T21:03:17.618Z,101434.11
2018-11-12T21:05:48.628Z,101438.11
2018-11-12T21:08:17.778Z,101440.17
2018-11-12T21:11:00.218Z,101438.20
2018-11-12T21:13:31.165Z,101426.09
2018-11-12T21:16:03.208Z,101413.47
2018-11-12T21:18:34.309Z,101419.61
2018-11-12T21:21:06.922Z,101423.57
2018-11-12T21:23:50.473Z,101422.14
2018-11-12T21:26:38.216Z,101420.56
2018-11-12T21:29:08.327Z,101428.16
2018-11-12T21:31:37.210Z,101437.45
2018-11-12T21:34:06.231Z,101450.44
2018-11-12T21:36:35.245Z,101449.38
2018-11-12T21:39:05.487Z,101443.64
2018-11-12T21:41:36.421Z,101447.15
2018-11-12T21:44:09.198Z,101445.63
2018-11-12T21:46:47.731Z,101437.87
2018-11-12T21:49:16.666Z,101442.20
2018-11-12T21:51:53.507Z,101450.30
2018-11-12T21:54:22.501Z,101446.20
2018-11-12T21:56:51.425Z,101454.54
2018-11-12T21:59:23.650Z,101456.58
2018-11-12T22:01:52.762Z,101457.34
2018-11-12T22:04:22.260Z,101465.70
2018-11-12T22:06:51.280Z,101466.95
2018-11-12T22:09:20.715Z,101458.03
2018-11-12T22:12:07.816Z,101459.19
2018-11-12T22:14:41.069Z,101456.77
2018-11-12T22:17:15.813Z,101461.08
2018-11-12T22:20:05.638Z,101461.58
2018-11-12T22:22:41.520Z,101463.60
2018-11-12T22:25:22.135Z,101471.30
2018-11-12T22:27:51.870Z,101473.99
2018-11-12T22:30:25.556Z,101471.70
2018-11-12T22:35:52.502Z,101478.05
2018-11-12T22:38:22.269Z,101478.22
2018-11-12T22:40:57.242Z,101493.41
2018-11-12T22:43:28.261Z,101497.42
2018-11-12T22:45:57.328Z,101506.55
2018-11-12T22:48:30.317Z,101509.83
2018-11-12T22:51:01.560Z,101513.46
2018-11-12T22:53:37.557Z,101515.81
2018-11-12T22:56:14.563Z,101513.20
2018-11-12T23:01:49.718Z,101513.80
2018-11-12T23:04:26.794Z,101519.95
2018-11-12T23:06:56.060Z,101519.73
2018-11-12T23:09:25.037Z,101526.13
2018-11-12T23:11:54.008Z,101507.05
2018-11-12T23:14:22.979Z,101510.02
2018-11-12T23:16:55.791Z,101517.19
2018-11-12T23:19:25.794Z,101503.30
2018-11-12T23:21:56.722Z,101507.69
2018-11-12T23:24:26.750Z,101505.24
2018-11-12T23:26:59.959Z,101505.14
2018-11-12T23:29:33.857Z,101506.19
2018-11-12T23:32:02.755Z,101502.88
2018-11-12T23:34:31.628Z,101491.88
2018-11-12T23:37:00.683Z,101474.48
2018-11-12T23:39:29.596Z,101480.31
2018-11-12T23:41:58.511Z,101475.10
2018-11-12T23:44:27.547Z,101480.21
2018-11-12T23:46:59.011Z,101478.81
2018-11-12T23:49:31.031Z,101486.96
2018-11-12T23:52:00.186Z,101505.63
2018-11-12T23:54:51.758Z,101516.47
2018-11-12T23:57:20.682Z,101526.70
2018-11-12T23:59:49.609Z,101518.41
